createdAt,value
2017-11-16T00:01:25.700Z,95.42
2017-11-16T00:02:52.921Z,95.54
2017-11-16T00:04:16.341Z,95.50
2017-11-16T00:05:43.732Z,95.67
2017-11-16T00:07:11.107Z,95.47
2017-11-16T00:08:38.317Z,94.86
2017-11-16T00:10:05.644Z,95.28
2017-11-16T00:11:36.950Z,95.45
2017-11-16T00:13:00.322Z,95.33
2017-11-16T00:14:27.608Z,95.50
2017-11-16T00:15:54.955Z,95.37
2017-11-16T00:17:26.202Z,95.23
2017-11-16T00:18:49.195Z,95.11
2017-11-16T00:20:16.562Z,95.10
2017-11-16T00:21:44.022Z,95.08
2017-11-16T00:23:11.534Z,95.11
2017-11-16T00:24:38.924Z,94.97
2017-11-16T00:26:10.165Z,95.22
2017-11-16T00:27:33.399Z,95.36
2017-11-16T00:29:00.620Z,95.30
2017-11-16T00:30:27.846Z,95.25
2017-11-16T00:31:55.176Z,95.41
2017-11-16T00:33:22.384Z,95.25
2017-11-16T00:34:49.547Z,95.42
2017-11-16T00:36:16.902Z,95.44
2017-11-16T00:37:48.494Z,95.34
2017-11-16T00:39:11.626Z,95.23
2017-11-16T00:40:42.909Z,95.48
2017-11-16T00:42:06.301Z,95.55
2017-11-16T00:43:33.528Z,95.67
2017-11-16T00:45:00.872Z,95.19
2017-11-16T00:46:28.250Z,95.61
2017-11-16T00:47:55.546Z,95.83
2017-11-16T00:49:22.934Z,96.32
2017-11-16T00:50:50.206Z,96.35
2017-11-16T00:52:17.352Z,96.62
2017-11-16T00:53:44.678Z,96.66
2017-11-16T00:55:12.045Z,96.59
2017-11-16T00:56:43.341Z,96.39
2017-11-16T00:58:06.523Z,96.42
2017-11-16T00:59:33.821Z,96.49
2017-11-16T01:01:01.040Z,96.26
2017-11-16T01:02:32.389Z,96.19
2017-11-16T01:03:55.791Z,96.12
2017-11-16T01:05:26.978Z,96.37
2017-11-16T01:06:50.245Z,96.29
2017-11-16T01:08:17.623Z,96.36
2017-11-16T01:09:44.932Z,95.95
2017-11-16T01:11:15.902Z,96.41
2017-11-16T01:12:39.329Z,96.30
2017-11-16T01:14:06.644Z,96.09
2017-11-16T01:15:33.919Z,96.05
2017-11-16T01:17:01.252Z,95.95
2017-11-16T01:18:28.741Z,95.74
2017-11-16T01:19:56.075Z,95.61
2017-11-16T01:21:23.213Z,95.64
2017-11-16T01:22:54.368Z,95.15
2017-11-16T01:24:21.948Z,95.66
2017-11-16T01:25:45.307Z,96.21
2017-11-16T01:27:12.636Z,96.11
2017-11-16T01:28:40.082Z,96.12
2017-11-16T01:30:11.265Z,95.98
2017-11-16T01:31:34.681Z,95.96
2017-11-16T01:33:01.995Z,95.83
2017-11-16T01:34:29.335Z,95.70
2017-11-16T01:35:56.507Z,95.75
2017-11-16T01:37:23.816Z,95.55
2017-11-16T01:38:55.160Z,95.45
2017-11-16T01:40:18.574Z,95.42
2017-11-16T01:41:45.955Z,95.51
2017-11-16T01:43:13.262Z,95.52
2017-11-16T01:44:40.457Z,95.75
2017-11-16T01:46:07.801Z,95.79
2017-11-16T01:47:35.068Z,95.75
2017-11-16T01:49:02.548Z,95.92
2017-11-16T01:50:29.827Z,96.00
2017-11-16T01:51:57.172Z,95.98
2017-11-16T01:53:24.547Z,95.94
2017-11-16T01:54:51.907Z,95.92
2017-11-16T01:56:19.270Z,95.88
2017-11-16T01:57:46.764Z,95.63
2017-11-16T01:59:18.230Z,95.87
2017-11-16T02:00:41.487Z,95.91
2017-11-16T02:02:08.889Z,95.80
2017-11-16T02:03:36.240Z,95.46
2017-11-16T02:05:07.464Z,95.35
2017-11-16T02:06:30.609Z,95.29
2017-11-16T02:08:01.951Z,95.29
2017-11-16T02:10:52.352Z,95.30
2017-11-16T02:12:23.558Z,95.06
2017-11-16T02:13:46.921Z,94.93
2017-11-16T02:15:18.275Z,94.94
2017-11-16T02:16:41.367Z,94.74
2017-11-16T02:18:08.509Z,94.70
2017-11-16T02:19:35.733Z,94.58
2017-11-16T02:21:03.156Z,94.83
2017-11-16T02:22:30.370Z,94.89
2017-11-16T02:23:57.533Z,94.81
2017-11-16T02:25:24.847Z,94.69
2017-11-16T02:26:52.215Z,94.52
2017-11-16T02:28:19.233Z,94.17
2017-11-16T02:29:46.739Z,94.24
2017-11-16T02:31:14.052Z,94.25
2017-11-16T02:32:41.334Z,94.38
2017-11-16T02:34:08.755Z,94.32
2017-11-16T02:35:36.208Z,94.50
2017-11-16T02:37:03.425Z,94.50
2017-11-16T02:38:30.751Z,94.35
2017-11-16T02:39:58.046Z,94.30
2017-11-16T02:41:29.354Z,94.37
2017-11-16T02:42:52.600Z,94.47
2017-11-16T02:44:23.886Z,94.48
2017-11-16T02:45:47.236Z,94.75
2017-11-16T02:47:14.671Z,94.75
2017-11-16T02:48:42.044Z,94.83
2017-11-16T02:50:09.411Z,94.73
2017-11-16T02:51:36.718Z,94.81
2017-11-16T02:53:04.149Z,94.88
2017-11-16T02:54:35.244Z,94.79
2017-11-16T02:56:02.438Z,94.77
2017-11-16T02:57:29.651Z,94.80
2017-11-16T02:58:52.871Z,94.99
2017-11-16T03:00:20.046Z,95.03
2017-11-16T03:01:51.318Z,95.13
2017-11-16T03:03:14.806Z,95.06
2017-11-16T03:04:42.176Z,95.11
2017-11-16T03:06:09.506Z,95.07
2017-11-16T03:07:40.752Z,95.30
2017-11-16T03:09:04.130Z,95.17
2017-11-16T03:10:31.501Z,95.22
2017-11-16T03:11:58.834Z,95.00
2017-11-16T03:13:26.072Z,95.35
2017-11-16T03:14:57.370Z,95.05
2017-11-16T03:16:20.631Z,95.09
2017-11-16T03:17:47.955Z,95.01
2017-11-16T03:19:15.188Z,94.97
2017-11-16T03:20:42.432Z,94.90
2017-11-16T03:22:09.819Z,94.92
2017-11-16T03:23:45.028Z,94.64
2017-11-16T03:25:08.625Z,94.54
2017-11-16T03:26:31.900Z,94.63
2017-11-16T03:27:59.124Z,94.66
2017-11-16T03:29:26.414Z,94.97
2017-11-16T03:30:57.825Z,94.90
2017-11-16T03:32:21.148Z,94.93
2017-11-16T03:33:48.582Z,95.05
2017-11-16T03:35:19.890Z,95.04
2017-11-16T03:36:43.352Z,95.12
2017-11-16T03:38:10.648Z,94.83
2017-11-16T03:39:37.990Z,94.78
2017-11-16T03:41:05.128Z,94.90
2017-11-16T03:42:32.447Z,95.01
2017-11-16T03:43:59.656Z,95.12
2017-11-16T03:45:31.034Z,95.09
2017-11-16T03:46:58.316Z,95.19
2017-11-16T03:48:21.619Z,94.98
2017-11-16T03:49:48.904Z,95.08
2017-11-16T03:51:16.283Z,95.01
2017-11-16T03:52:43.640Z,95.05
2017-11-16T03:54:10.730Z,95.17
2017-11-16T03:55:38.101Z,95.13
2017-11-16T03:57:05.474Z,95.25
2017-11-16T03:58:36.797Z,95.08
2017-11-16T04:00:04.139Z,95.26
2017-11-16T04:01:27.425Z,95.24
2017-11-16T04:02:58.627Z,95.28
2017-11-16T04:04:25.923Z,95.55
2017-11-16T04:05:49.407Z,95.53
2017-11-16T04:07:16.548Z,95.64
2017-11-16T04:08:47.955Z,95.42
2017-11-16T04:10:15.326Z,95.60
2017-11-16T04:11:42.650Z,95.59
2017-11-16T04:13:05.976Z,95.20
2017-11-16T04:14:37.265Z,95.46
2017-11-16T04:16:04.778Z,95.42
2017-11-16T04:17:27.932Z,95.46
2017-11-16T04:18:55.291Z,95.47
2017-11-16T04:20:22.465Z,95.72
2017-11-16T04:21:49.312Z,95.79
2017-11-16T04:23:16.721Z,95.80
2017-11-16T04:24:44.178Z,95.71
2017-11-16T04:26:11.596Z,95.86
2017-11-16T04:27:42.754Z,95.68
2017-11-16T04:29:10.216Z,95.98
2017-11-16T04:30:37.685Z,96.05
2017-11-16T04:32:00.972Z,96.44
2017-11-16T04:33:28.216Z,97.06
2017-11-16T04:34:55.280Z,97.18
2017-11-16T04:36:22.565Z,97.13
2017-11-16T04:37:49.763Z,96.66
2017-11-16T04:39:17.104Z,97.15
2017-11-16T04:40:44.352Z,96.97
2017-11-16T04:42:11.728Z,96.46
2017-11-16T04:43:38.918Z,96.83
2017-11-16T04:45:06.219Z,96.98
2017-11-16T04:46:33.678Z,97.29
2017-11-16T04:48:01.013Z,97.13
2017-11-16T04:49:28.241Z,97.50
2017-11-16T04:50:59.505Z,97.63
2017-11-16T04:52:26.796Z,97.91
2017-11-16T04:53:49.929Z,97.79
2017-11-16T04:55:17.120Z,98.03
2017-11-16T04:56:44.311Z,97.92
2017-11-16T04:58:15.533Z,98.04
2017-11-16T04:59:38.907Z,98.28
2017-11-16T05:01:10.366Z,98.54
2017-11-16T05:02:33.567Z,98.68
2017-11-16T05:04:00.768Z,98.47
2017-11-16T05:05:32.076Z,98.17
2017-11-16T05:06:55.318Z,98.21
2017-11-16T05:08:26.542Z,98.15
2017-11-16T05:09:53.877Z,98.28
2017-11-16T05:11:21.199Z,98.41
2017-11-16T05:12:44.445Z,98.58
2017-11-16T05:14:11.632Z,98.10
2017-11-16T05:15:38.933Z,98.22
2017-11-16T05:17:06.253Z,98.15
2017-11-16T05:18:33.516Z,97.92
2017-11-16T05:20:00.758Z,97.60
2017-11-16T05:21:27.980Z,97.48
2017-11-16T05:22:55.145Z,97.41
2017-11-16T05:24:22.519Z,97.35
2017-11-16T05:25:49.624Z,96.91
2017-11-16T05:27:16.982Z,97.16
2017-11-16T05:28:44.094Z,97.42
2017-11-16T05:30:11.325Z,97.53
2017-11-16T05:31:42.643Z,97.37
2017-11-16T05:33:09.937Z,97.54
2017-11-16T05:34:33.110Z,97.36
2017-11-16T05:36:00.563Z,97.20
2017-11-16T05:37:27.922Z,97.04
2017-11-16T05:38:59.160Z,97.19
2017-11-16T05:40:22.537Z,97.70
2017-11-16T05:41:49.710Z,97.62
2017-11-16T05:43:17.055Z,97.91
2017-11-16T05:44:48.327Z,97.67
2017-11-16T05:46:15.393Z,97.65
2017-11-16T05:47:38.716Z,97.84
2017-11-16T05:49:10.111Z,97.98
2017-11-16T05:50:33.403Z,98.16
2017-11-16T05:52:04.787Z,98.19
2017-11-16T05:53:28.027Z,98.46
2017-11-16T05:54:55.316Z,98.68
2017-11-16T05:56:22.450Z,98.65
2017-11-16T05:57:49.701Z,98.50
2017-11-16T05:59:17.113Z,98.24
2017-11-16T06:00:44.362Z,98.12
2017-11-16T06:02:11.308Z,98.19
2017-11-16T06:03:38.741Z,98.65
2017-11-16T06:05:06.084Z,98.49
2017-11-16T06:06:33.302Z,98.50
2017-11-16T06:08:04.743Z,98.77
2017-11-16T06:09:27.987Z,98.80
2017-11-16T06:10:55.176Z,98.81
2017-11-16T06:12:22.471Z,98.43
2017-11-16T06:13:53.579Z,98.58
2017-11-16T06:15:20.989Z,98.62
2017-11-16T06:16:44.255Z,98.86
2017-11-16T06:18:11.522Z,98.78
2017-11-16T06:19:42.781Z,99.02
2017-11-16T06:21:06.141Z,98.87
2017-11-16T06:22:33.472Z,98.79
2017-11-16T06:24:04.808Z,98.85
2017-11-16T06:25:28.070Z,98.77
2017-11-16T06:26:59.330Z,98.82
2017-11-16T06:28:22.532Z,98.75
2017-11-16T06:29:53.739Z,98.59
2017-11-16T06:31:17.042Z,98.47
2017-11-16T06:32:44.211Z,98.27
2017-11-16T06:34:15.559Z,97.92
2017-11-16T06:35:38.842Z,98.00
2017-11-16T06:37:10.245Z,97.95
2017-11-16T06:38:33.541Z,97.89
2017-11-16T06:40:00.957Z,97.71
2017-11-16T06:41:28.199Z,97.89
2017-11-16T06:42:55.491Z,98.18
2017-11-16T06:44:22.606Z,98.23
2017-11-16T06:45:49.696Z,98.00
2017-11-16T06:47:17.076Z,97.99
2017-11-16T06:48:44.412Z,97.84
2017-11-16T06:50:11.789Z,97.79
2017-11-16T06:51:39.173Z,97.58
2017-11-16T06:53:10.430Z,97.36
2017-11-16T06:54:33.776Z,97.19
2017-11-16T06:56:05.017Z,97.16
2017-11-16T06:57:28.421Z,97.10
2017-11-16T06:58:59.984Z,97.08
2017-11-16T07:00:23.244Z,96.98
2017-11-16T07:01:50.435Z,96.81
2017-11-16T07:03:17.682Z,96.92
2017-11-16T07:04:45.014Z,96.65
2017-11-16T07:06:16.421Z,96.59
2017-11-16T07:07:39.211Z,96.85
2017-11-16T07:09:06.622Z,97.16
2017-11-16T07:10:33.890Z,96.99
2017-11-16T07:12:01.106Z,97.25
2017-11-16T07:13:28.416Z,97.21
2017-11-16T07:14:55.920Z,97.13
2017-11-16T07:16:27.124Z,96.95
2017-11-16T07:17:50.313Z,96.96
2017-11-16T07:19:17.698Z,96.89
2017-11-16T07:20:45.128Z,96.74
2017-11-16T07:22:12.265Z,96.60
2017-11-16T07:23:39.701Z,96.61
2017-11-16T07:25:07.127Z,96.51
2017-11-16T07:26:34.260Z,96.60
2017-11-16T07:28:05.645Z,96.61
2017-11-16T07:29:28.744Z,96.63
2017-11-16T07:30:56.045Z,96.62
2017-11-16T07:32:23.322Z,96.63
2017-11-16T07:33:54.618Z,96.53
2017-11-16T07:35:17.882Z,96.58
2017-11-16T07:36:49.200Z,96.52
2017-11-16T07:38:12.512Z,96.42
2017-11-16T07:39:39.941Z,96.31
2017-11-16T07:41:07.375Z,96.35
2017-11-16T07:42:34.701Z,96.50
2017-11-16T07:44:05.966Z,96.51
2017-11-16T07:45:29.279Z,96.53
2017-11-16T07:46:56.818Z,96.47
2017-11-16T07:48:27.961Z,96.34
2017-11-16T07:49:51.250Z,96.59
2017-11-16T07:51:18.497Z,96.82
2017-11-16T07:52:49.778Z,97.11
2017-11-16T07:54:12.982Z,97.54
2017-11-16T07:55:40.360Z,97.92
2017-11-16T07:57:11.663Z,98.05
2017-11-16T07:58:35.118Z,98.10
2017-11-16T08:00:06.546Z,98.03
2017-11-16T08:01:29.854Z,98.08
2017-11-16T08:02:57.125Z,98.19
2017-11-16T08:04:24.576Z,97.85
2017-11-16T08:05:51.858Z,98.04
2017-11-16T08:07:19.416Z,98.34
2017-11-16T08:08:46.803Z,98.47
2017-11-16T08:10:18.030Z,98.39
2017-11-16T08:11:41.559Z,98.41
2017-11-16T08:13:12.719Z,98.42
2017-11-16T08:14:36.104Z,98.36
2017-11-16T08:16:03.403Z,98.28
2017-11-16T08:17:30.838Z,98.10
2017-11-16T08:18:57.994Z,98.01
2017-11-16T08:20:25.227Z,97.98
2017-11-16T08:21:52.605Z,97.92
2017-11-16T08:23:19.842Z,97.75
2017-11-16T08:24:47.087Z,97.59
2017-11-16T08:26:18.354Z,97.55
2017-11-16T08:27:41.576Z,97.45
2017-11-16T08:29:08.900Z,97.31
2017-11-16T08:30:36.284Z,97.48
2017-11-16T08:32:03.518Z,97.69
2017-11-16T08:33:34.762Z,97.53
2017-11-16T08:34:57.857Z,97.28
2017-11-16T08:36:29.169Z,97.16
2017-11-16T08:37:52.479Z,97.19
2017-11-16T08:39:19.718Z,97.10
2017-11-16T08:40:47.003Z,97.10
2017-11-16T08:42:18.497Z,97.07
2017-11-16T08:43:41.895Z,96.90
2017-11-16T08:45:12.992Z,97.02
2017-11-16T08:46:36.377Z,97.00
2017-11-16T08:48:03.650Z,97.11
2017-11-16T08:49:30.964Z,97.14
2017-11-16T08:50:58.213Z,97.14
2017-11-16T08:52:29.409Z,97.08
2017-11-16T08:53:52.592Z,97.17
2017-11-16T08:55:19.722Z,97.21
2017-11-16T08:56:51.088Z,97.19
2017-11-16T08:58:18.488Z,97.16
2017-11-16T08:59:41.821Z,97.12
2017-11-16T09:01:09.007Z,97.25
2017-11-16T09:02:36.377Z,97.33
2017-11-16T09:04:03.835Z,97.36
2017-11-16T09:05:31.154Z,97.49
2017-11-16T09:07:02.453Z,97.46
2017-11-16T09:08:29.657Z,97.55
2017-11-16T09:09:57.123Z,97.60
2017-11-16T09:11:20.336Z,97.52
2017-11-16T09:12:47.656Z,97.56
2017-11-16T09:14:19.034Z,97.66
2017-11-16T09:15:42.057Z,97.90
2017-11-16T09:17:13.468Z,98.02
2017-11-16T09:18:40.912Z,98.08
2017-11-16T09:20:04.257Z,98.17
2017-11-16T09:21:31.710Z,98.24
2017-11-16T09:22:59.002Z,98.22
2017-11-16T09:24:26.207Z,98.34
2017-11-16T09:25:57.492Z,98.43
2017-11-16T09:27:24.764Z,98.49
2017-11-16T09:28:48.235Z,98.62
2017-11-16T09:30:19.685Z,98.59
2017-11-16T09:31:42.933Z,98.67
2017-11-16T09:33:10.343Z,98.68
2017-11-16T09:34:37.783Z,98.73
2017-11-16T09:36:09.160Z,98.76
2017-11-16T09:37:36.300Z,98.77
2017-11-16T09:38:59.568Z,98.88
2017-11-16T09:40:27.043Z,98.83
2017-11-16T09:41:54.460Z,98.86
2017-11-16T09:43:25.680Z,98.92
2017-11-16T09:44:48.996Z,99.03
2017-11-16T09:46:16.388Z,99.11
2017-11-16T09:47:47.743Z,99.11
2017-11-16T09:49:11.184Z,99.17
2017-11-16T09:50:38.568Z,99.07
2017-11-16T09:52:05.848Z,99.14
2017-11-16T09:53:33.036Z,99.29
2017-11-16T09:55:04.372Z,99.37
2017-11-16T09:56:27.773Z,99.39
2017-11-16T09:57:55.249Z,99.42
2017-11-16T09:59:22.632Z,99.40
2017-11-16T10:00:49.746Z,99.33
2017-11-16T10:02:17.262Z,99.28
2017-11-16T10:03:44.681Z,99.28
2017-11-16T10:05:11.877Z,99.08
2017-11-16T10:06:43.195Z,98.94
2017-11-16T10:08:06.659Z,99.04
2017-11-16T10:09:37.929Z,99.07
2017-11-16T10:11:01.241Z,99.04
2017-11-16T10:12:32.781Z,99.04
2017-11-16T10:13:55.986Z,99.01
2017-11-16T10:15:23.216Z,98.83
2017-11-16T10:16:50.380Z,98.96
2017-11-16T10:18:17.835Z,98.83
2017-11-16T10:19:45.225Z,98.86
2017-11-16T10:21:16.673Z,98.81
2017-11-16T10:22:39.975Z,98.90
2017-11-16T10:24:11.132Z,98.78
2017-11-16T10:25:34.610Z,98.75
2017-11-16T10:27:01.915Z,98.80
2017-11-16T10:28:33.127Z,98.80
2017-11-16T10:29:56.334Z,98.65
2017-11-16T10:31:27.733Z,98.45
2017-11-16T10:32:51.027Z,98.43
2017-11-16T10:34:18.457Z,98.31
2017-11-16T10:35:45.749Z,98.17
2017-11-16T10:37:17.169Z,98.25
2017-11-16T10:38:44.776Z,98.28
2017-11-16T10:40:08.265Z,98.18
2017-11-16T10:41:35.684Z,98.14
2017-11-16T10:43:07.000Z,98.09
2017-11-16T10:44:30.388Z,98.14
2017-11-16T10:45:57.693Z,98.15
2017-11-16T10:47:29.143Z,98.15
2017-11-16T10:48:52.173Z,98.11
2017-11-16T10:50:23.507Z,98.04
2017-11-16T10:51:50.785Z,98.09
2017-11-16T10:53:14.182Z,98.04
2017-11-16T10:54:41.734Z,98.08
2017-11-16T10:56:12.874Z,97.92
2017-11-16T10:57:40.090Z,97.96
2017-11-16T10:59:03.402Z,97.90
2017-11-16T11:00:30.743Z,98.00
2017-11-16T11:02:01.993Z,98.04
2017-11-16T11:03:29.414Z,98.17
2017-11-16T11:04:56.658Z,98.03
2017-11-16T11:06:19.906Z,98.14
2017-11-16T11:07:47.364Z,98.17
2017-11-16T11:09:14.673Z,98.25
2017-11-16T11:10:41.785Z,98.15
2017-11-16T11:12:09.201Z,98.19
2017-11-16T11:13:36.428Z,98.12
2017-11-16T11:15:03.625Z,98.02
2017-11-16T11:16:30.783Z,97.84
2017-11-16T11:17:58.220Z,97.84
2017-11-16T11:19:25.575Z,97.97
2017-11-16T11:20:52.886Z,98.00
2017-11-16T11:22:20.144Z,98.08
2017-11-16T11:23:47.577Z,98.18
2017-11-16T11:25:18.768Z,98.09
2017-11-16T11:26:42.041Z,97.95
2017-11-16T11:28:13.425Z,97.88
2017-11-16T11:29:36.645Z,98.10
2017-11-16T11:31:03.856Z,98.11
2017-11-16T11:32:31.356Z,98.09
2017-11-16T11:34:02.781Z,97.95
2017-11-16T11:35:25.839Z,97.86
2017-11-16T11:36:57.186Z,97.75
2017-11-16T11:38:20.501Z,97.71
2017-11-16T11:39:48.084Z,97.83
2017-11-16T11:41:15.319Z,97.95
2017-11-16T11:42:42.764Z,98.12
2017-11-16T11:44:14.088Z,98.00
2017-11-16T11:45:41.360Z,97.96
2017-11-16T11:47:04.739Z,97.88
2017-11-16T11:48:32.134Z,97.94
2017-11-16T11:50:03.338Z,97.86
2017-11-16T11:51:26.604Z,98.01
2017-11-16T11:52:57.906Z,97.97
2017-11-16T11:54:21.294Z,97.91
2017-11-16T11:55:48.609Z,97.93
2017-11-16T11:57:16.071Z,97.83
2017-11-16T11:58:43.502Z,97.91
2017-11-16T12:00:10.833Z,97.64
2017-11-16T12:01:38.070Z,97.43
2017-11-16T12:03:05.490Z,97.29
2017-11-16T12:04:32.838Z,97.24
2017-11-16T12:06:00.297Z,97.12
2017-11-16T12:07:27.602Z,96.88
2017-11-16T12:08:55.068Z,97.03
2017-11-16T12:10:26.316Z,96.99
2017-11-16T12:11:49.510Z,97.00
2017-11-16T12:13:16.757Z,97.03
2017-11-16T12:14:44.088Z,97.02
2017-11-16T12:16:11.513Z,96.99
2017-11-16T12:17:42.890Z,96.98
2017-11-16T12:19:06.125Z,96.67
2017-11-16T12:20:33.604Z,96.81
2017-11-16T12:22:00.907Z,96.56
2017-11-16T12:23:28.274Z,96.42
2017-11-16T12:24:55.548Z,96.25
2017-11-16T12:26:26.866Z,96.10
2017-11-16T12:27:49.938Z,95.99
2017-11-16T12:29:21.338Z,95.76
2017-11-16T12:30:44.908Z,95.64
2017-11-16T12:32:11.957Z,95.75
2017-11-16T12:33:39.187Z,95.57
2017-11-16T12:35:06.461Z,95.50
2017-11-16T12:36:33.667Z,95.87
2017-11-16T12:38:00.984Z,95.91
2017-11-16T12:39:28.249Z,95.28
2017-11-16T12:40:55.654Z,94.90
2017-11-16T12:42:22.935Z,94.33
2017-11-16T12:43:50.163Z,93.78
2017-11-16T12:45:17.575Z,93.80
2017-11-16T12:46:48.989Z,93.67
2017-11-16T12:48:16.332Z,93.47
2017-11-16T12:49:39.688Z,93.44
2017-11-16T12:51:07.087Z,93.26
2017-11-16T12:52:34.568Z,93.14
2017-11-16T12:54:05.928Z,93.31
2017-11-16T12:55:29.192Z,92.83
2017-11-16T12:56:56.624Z,92.78
2017-11-16T12:58:27.878Z,93.17
2017-11-16T12:59:51.044Z,92.67
2017-11-16T13:01:18.469Z,92.74
2017-11-16T13:02:45.813Z,92.81
2017-11-16T13:04:17.219Z,92.57
2017-11-16T13:05:40.425Z,93.09
2017-11-16T13:07:11.851Z,92.59
2017-11-16T13:08:39.114Z,93.01
2017-11-16T13:10:02.546Z,92.44
2017-11-16T13:11:29.995Z,92.35
2017-11-16T13:12:57.139Z,92.59
2017-11-16T13:14:24.437Z,92.73
2017-11-16T13:15:51.859Z,92.06
2017-11-16T13:17:23.333Z,92.17
2017-11-16T13:18:46.612Z,92.15
2017-11-16T13:20:14.101Z,91.44
2017-11-16T13:21:41.561Z,91.98
2017-11-16T13:23:12.732Z,92.27
2017-11-16T13:24:36.025Z,91.79
2017-11-16T13:26:03.495Z,91.61
2017-11-16T13:27:30.733Z,92.06
2017-11-16T13:29:02.038Z,92.36
2017-11-16T13:30:25.144Z,92.48
2017-11-16T13:31:56.504Z,92.14
2017-11-16T13:33:19.770Z,91.79
2017-11-16T13:34:47.237Z,91.69
2017-11-16T13:36:14.560Z,91.82
2017-11-16T13:37:42.002Z,91.76
2017-11-16T13:39:09.452Z,91.42
2017-11-16T13:40:36.694Z,91.50
2017-11-16T13:42:03.980Z,91.50
2017-11-16T13:43:35.300Z,91.30
2017-11-16T13:45:02.634Z,91.39
2017-11-16T13:46:30.019Z,91.38
2017-11-16T13:47:53.160Z,91.57
2017-11-16T13:49:20.350Z,91.48
2017-11-16T13:50:47.728Z,91.42
2017-11-16T13:52:15.142Z,91.53
2017-11-16T13:53:42.473Z,91.61
2017-11-16T13:55:09.890Z,91.72
2017-11-16T13:56:37.129Z,91.81
2017-11-16T13:58:04.344Z,91.55
2017-11-16T13:59:31.705Z,91.77
2017-11-16T14:00:58.982Z,91.44
2017-11-16T14:02:26.333Z,91.56
2017-11-16T14:03:53.491Z,91.82
2017-11-16T14:05:20.672Z,91.22
2017-11-16T14:06:48.068Z,91.08
2017-11-16T14:08:15.508Z,91.43
2017-11-16T14:09:42.821Z,91.48
2017-11-16T14:11:14.207Z,91.75
2017-11-16T14:12:37.644Z,91.61
2017-11-16T14:14:05.107Z,91.61
2017-11-16T14:15:36.540Z,91.70
2017-11-16T14:16:59.769Z,91.77
2017-11-16T14:18:27.157Z,91.26
2017-11-16T14:19:54.637Z,91.27
2017-11-16T14:21:21.808Z,91.00
2017-11-16T14:22:49.204Z,90.97
2017-11-16T14:24:16.541Z,90.70
2017-11-16T14:25:43.913Z,90.44
2017-11-16T14:27:11.257Z,90.46
2017-11-16T14:28:38.575Z,90.47
2017-11-16T14:30:09.907Z,90.16
2017-11-16T14:31:37.282Z,90.46
2017-11-16T14:33:00.778Z,90.28
2017-11-16T14:34:28.081Z,89.92
2017-11-16T14:35:55.341Z,89.69
2017-11-16T14:37:22.737Z,90.02
2017-11-16T14:38:49.981Z,89.93
2017-11-16T14:40:21.295Z,90.00
2017-11-16T14:41:48.486Z,89.84
2017-11-16T14:43:11.859Z,89.44
2017-11-16T14:44:39.182Z,88.95
2017-11-16T14:46:06.585Z,88.99
2017-11-16T14:47:33.685Z,88.84
2017-11-16T14:49:04.994Z,88.63
2017-11-16T14:50:28.464Z,88.27
2017-11-16T14:51:55.640Z,88.44
2017-11-16T14:53:22.705Z,88.48
2017-11-16T14:54:49.956Z,88.06
2017-11-16T14:56:17.192Z,88.07
2017-11-16T14:57:44.437Z,88.13
2017-11-16T14:59:11.684Z,87.87
2017-11-16T15:00:38.979Z,87.94
2017-11-16T15:02:06.137Z,88.08
2017-11-16T15:03:33.369Z,88.48
2017-11-16T15:05:04.683Z,88.71
2017-11-16T15:06:28.106Z,88.75
2017-11-16T15:07:55.326Z,88.74
2017-11-16T15:09:22.621Z,88.65
2017-11-16T15:10:49.774Z,88.55
2017-11-16T15:12:17.153Z,88.60
2017-11-16T15:13:48.641Z,88.56
2017-11-16T15:15:11.838Z,88.78
2017-11-16T15:16:43.187Z,88.37
2017-11-16T15:18:10.680Z,88.82
2017-11-16T15:19:33.937Z,89.08
2017-11-16T15:21:01.272Z,89.18
2017-11-16T15:22:32.551Z,89.41
2017-11-16T15:23:59.874Z,89.38
2017-11-16T15:25:23.087Z,89.40
2017-11-16T15:26:54.162Z,89.66
2017-11-16T15:28:21.499Z,89.73
2017-11-16T15:29:44.955Z,89.50
2017-11-16T15:31:16.381Z,89.42
2017-11-16T15:32:43.593Z,88.97
2017-11-16T15:34:10.768Z,88.95
2017-11-16T15:35:34.197Z,88.89
2017-11-16T15:37:01.455Z,88.97
2017-11-16T15:38:28.888Z,89.02
2017-11-16T15:39:56.248Z,88.73
2017-11-16T15:41:23.722Z,88.68
2017-11-16T15:42:50.897Z,88.79
2017-11-16T15:44:22.226Z,89.17
2017-11-16T15:45:49.418Z,89.13
2017-11-16T15:47:12.772Z,89.28
2017-11-16T15:48:40.194Z,89.43
2017-11-16T15:50:07.537Z,89.50
2017-11-16T15:51:35.020Z,89.45
2017-11-16T15:53:06.327Z,89.82
2017-11-16T15:54:29.709Z,90.08
2017-11-16T15:55:56.895Z,89.93
2017-11-16T15:57:24.224Z,89.56
2017-11-16T15:58:51.636Z,89.38
2017-11-16T16:00:19.063Z,89.44
2017-11-16T16:01:46.198Z,89.76
2017-11-16T16:03:13.433Z,89.59
2017-11-16T16:04:40.925Z,89.61
2017-11-16T16:06:08.251Z,89.67
2017-11-16T16:07:39.561Z,89.38
2017-11-16T16:09:02.777Z,89.67
2017-11-16T16:10:30.104Z,89.54
2017-11-16T16:12:01.334Z,89.64
2017-11-16T16:13:28.743Z,89.56
2017-11-16T16:14:51.880Z,89.60
2017-11-16T16:16:23.173Z,89.69
2017-11-16T16:17:46.530Z,89.42
2017-11-16T16:19:13.793Z,89.49
2017-11-16T16:20:40.934Z,89.56
2017-11-16T16:22:12.220Z,89.59
2017-11-16T16:23:35.705Z,89.47
2017-11-16T16:25:02.872Z,89.50
2017-11-16T16:26:30.148Z,89.43
2017-11-16T16:28:01.457Z,89.55
2017-11-16T16:29:24.719Z,89.67
2017-11-16T16:30:52.001Z,89.61
2017-11-16T16:32:19.610Z,89.61
2017-11-16T16:33:47.085Z,89.51
2017-11-16T16:35:14.549Z,89.50
2017-11-16T16:36:45.844Z,89.38
2017-11-16T16:38:09.032Z,89.59
2017-11-16T16:39:36.523Z,89.33
2017-11-16T16:41:03.821Z,89.37
2017-11-16T16:42:31.163Z,89.36
2017-11-16T16:44:02.530Z,89.70
2017-11-16T16:45:29.893Z,89.58
2017-11-16T16:46:53.148Z,89.58
2017-11-16T16:48:20.353Z,89.77
2017-11-16T16:49:47.698Z,89.66
2017-11-16T16:51:15.088Z,89.69
2017-11-16T16:52:42.529Z,89.70
2017-11-16T16:54:13.745Z,89.74
2017-11-16T16:55:37.181Z,89.57
2017-11-16T16:57:08.408Z,89.64
2017-11-16T16:58:32.027Z,89.77
2017-11-16T16:59:59.316Z,89.86
2017-11-16T17:01:30.808Z,89.91
2017-11-16T17:02:54.072Z,89.82
2017-11-16T17:04:21.362Z,89.88
2017-11-16T17:05:52.436Z,89.93
2017-11-16T17:07:15.741Z,89.78
2017-11-16T17:08:43.059Z,89.72
2017-11-16T17:10:10.317Z,89.57
2017-11-16T17:11:37.656Z,89.81
2017-11-16T17:13:05.227Z,89.96
2017-11-16T17:14:32.376Z,89.94
2017-11-16T17:15:59.726Z,90.07
2017-11-16T17:17:27.073Z,90.17
2017-11-16T17:18:54.241Z,90.31
2017-11-16T17:20:21.484Z,90.50
2017-11-16T17:21:48.978Z,90.72
2017-11-16T17:23:16.516Z,90.71
2017-11-16T17:24:47.766Z,90.81
2017-11-16T17:26:11.170Z,90.84
2017-11-16T17:27:38.602Z,90.85
2017-11-16T17:29:05.963Z,90.70
2017-11-16T17:30:33.472Z,90.75
2017-11-16T17:32:04.764Z,90.82
2017-11-16T17:33:27.988Z,91.00
2017-11-16T17:34:55.370Z,91.01
2017-11-16T17:36:26.548Z,90.96
2017-11-16T17:37:49.746Z,91.04
2017-11-16T17:39:17.047Z,91.00
2017-11-16T17:40:48.338Z,91.09
2017-11-16T17:42:11.688Z,91.19
2017-11-16T17:43:38.954Z,91.39
2017-11-16T17:45:06.312Z,91.49
2017-11-16T17:46:33.686Z,91.40
2017-11-16T17:48:00.970Z,91.36
2017-11-16T17:49:28.360Z,91.25
2017-11-16T17:50:55.711Z,91.16
2017-11-16T17:52:22.939Z,91.07
2017-11-16T17:53:54.026Z,90.97
2017-11-16T17:55:17.371Z,91.14
2017-11-16T17:56:44.745Z,91.24
2017-11-16T17:58:12.014Z,91.29
2017-11-16T17:59:39.557Z,91.11
2017-11-16T18:01:06.746Z,91.01
2017-11-16T18:02:34.015Z,91.33
2017-11-16T18:04:05.313Z,91.25
2017-11-16T18:05:28.569Z,91.21
2017-11-16T18:06:55.689Z,91.37
2017-11-16T18:08:22.932Z,91.21
2017-11-16T18:09:50.094Z,91.10
2017-11-16T18:11:17.297Z,91.00
2017-11-16T18:12:48.685Z,91.16
2017-11-16T18:14:11.978Z,91.09
2017-11-16T18:15:39.239Z,91.04
2017-11-16T18:17:10.551Z,91.05
2017-11-16T18:18:33.946Z,90.97
2017-11-16T18:20:01.246Z,90.85
2017-11-16T18:21:28.472Z,90.95
2017-11-16T18:22:55.793Z,91.06
2017-11-16T18:24:23.149Z,90.94
2017-11-16T18:25:54.499Z,90.89
2017-11-16T18:27:21.799Z,90.78
2017-11-16T18:28:49.080Z,90.75
2017-11-16T18:30:12.379Z,90.79
2017-11-16T18:31:39.755Z,90.80
2017-11-16T18:33:07.065Z,90.72
2017-11-16T18:34:34.295Z,90.67
2017-11-16T18:36:01.783Z,90.59
2017-11-16T18:37:29.025Z,90.58
2017-11-16T18:38:56.178Z,90.65
2017-11-16T18:40:23.553Z,90.52
2017-11-16T18:41:54.632Z,90.60
2017-11-16T18:43:21.932Z,90.43
2017-11-16T18:44:45.253Z,90.51
2017-11-16T18:46:12.718Z,90.45